Time;durP1;ratioP1;P1;durP2;ratioP2;P2;SDS_P1;SDS_P2;PMS_P1;PMS_P2;Temp;Humidity;BMP_temperature;BMP_pressure;BME280_temperature;BME280_humidity;BME280_pressure;Samples;Min_cycle;Max_cycle;Signal;HPM_P1;HPM_P2
2021/11/11 00:01:51;;;;;;;21.47;13.30;;;;;;;0.93;96.00;96134.59;5057327;28;20350;-79
2021/11/11 00:04:19;;;;;;;21.73;13.67;;;;;;;0.95;95.67;96132.78;5077063;28;20212;-79
2021/11/11 00:06:45;;;;;;;24.10;14.80;;;;;;;0.94;95.92;96122.66;5090164;28;20180;-78
2021/11/11 00:09:11;;;;;;;25.27;15.10;;;;;;;0.94;95.80;96120.09;5074224;28;20185;-79
2021/11/11 00:11:36;;;;;;;21.00;14.03;;;;;;;0.94;96.07;96120.91;5074524;28;20185;-78
2021/11/11 00:14:01;;;;;;;20.47;15.17;;;;;;;0.97;95.92;96122.47;5061095;28;20184;-79
2021/11/11 00:16:27;;;;;;;19.97;13.93;;;;;;;0.97;96.03;96125.03;5085319;28;20207;-79
2021/11/11 00:18:52;;;;;;;21.93;15.77;;;;;;;1.00;96.41;96122.34;5073998;28;20181;-78
2021/11/11 00:21:17;;;;;;;23.80;15.53;;;;;;;0.99;96.02;96123.25;5074670;28;20212;-79
2021/11/11 00:23:43;;;;;;;22.43;15.13;;;;;;;0.95;95.57;96111.50;5073437;28;20185;-79
2021/11/11 00:26:09;;;;;;;20.93;14.03;;;;;;;0.95;95.95;96116.63;5079802;28;20192;-80
2021/11/11 00:28:34;;;;;;;22.30;15.50;;;;;;;0.95;95.95;96114.91;5057510;28;20181;-79
2021/11/11 00:31:00;;;;;;;21.77;15.27;;;;;;;0.94;96.10;96113.25;5056661;28;20211;-79
2021/11/11 00:33:25;;;;;;;25.30;15.73;;;;;;;0.93;95.89;96113.31;5086820;28;20180;-78
2021/11/11 00:35:51;;;;;;;24.33;15.47;;;;;;;0.92;95.85;96106.56;5089717;28;20263;-78
2021/11/11 00:38:16;;;;;;;24.73;16.20;;;;;;;0.95;95.91;96106.41;5079174;28;20235;-78
2021/11/11 00:40:41;;;;;;;33.73;18.07;;;;;;;1.00;95.85;96109.56;5073416;28;20627;-79
2021/11/11 00:43:07;;;;;;;27.00;18.33;;;;;;;1.03;95.65;96100.00;5074376;28;20561;-79
2021/11/11 00:45:33;;;;;;;28.90;17.93;;;;;;;1.02;95.58;96097.53;5073566;28;20312;-79
2021/11/11 00:47:59;;;;;;;25.20;17.23;;;;;;;1.04;95.57;96100.81;5061796;28;20645;-79
2021/11/11 00:50:29;;;;;;;26.37;16.80;;;;;;;0.98;95.89;96107.09;5092728;28;20593;-78
2021/11/11 00:52:54;;;;;;;33.57;19.50;;;;;;;1.11;95.80;96099.63;5081773;28;20251;-78
2021/11/11 00:55:19;;;;;;;29.27;18.03;;;;;;;1.08;95.88;96092.09;5074485;28;20178;-79
2021/11/11 00:57:45;;;;;;;30.53;18.10;;;;;;;1.08;95.38;96092.94;5080398;28;20617;-78
2021/11/11 01:00:13;;;;;;;28.63;19.17;;;;;;;1.05;95.37;96087.13;5089668;28;20821;-79
2021/11/11 01:02:39;;;;;;;25.90;18.17;;;;;;;1.02;95.50;96082.19;5084289;28;20602;-79
2021/11/11 01:05:06;;;;;;;29.03;18.30;;;;;;;1.05;95.67;96080.28;5056018;28;20284;-79
2021/11/11 01:07:31;;;;;;;28.90;18.10;;;;;;;0.98;95.40;96076.41;5055780;28;20277;-79
2021/11/11 01:09:57;;;;;;;29.07;18.07;;;;;;;0.96;95.44;96083.28;5083511;28;20248;-79
2021/11/11 01:12:22;;;;;;;30.87;18.53;;;;;;;0.91;95.57;96082.72;5076227;28;20176;-79
2021/11/11 01:14:47;;;;;;;29.30;16.57;;;;;;;0.89;95.35;96086.25;5091431;28;20191;-79
2021/11/11 01:17:12;;;;;;;28.97;17.80;;;;;;;0.90;95.39;96080.25;5072748;28;20652;-79
2021/11/11 01:19:38;;;;;;;32.60;16.43;;;;;;;0.91;95.47;96099.78;5080642;28;20195;-79
2021/11/11 01:22:04;;;;;;;31.67;17.73;;;;;;;0.94;95.70;96090.22;5089996;28;20184;-79
2021/11/11 01:24:29;;;;;;;28.77;19.23;;;;;;;0.96;95.51;96098.63;5092283;28;20222;-79
2021/11/11 01:26:55;;;;;;;29.87;19.43;;;;;;;0.95;95.56;96102.09;5092051;28;20188;-79
2021/11/11 01:29:20;;;;;;;31.13;19.00;;;;;;;0.94;95.65;96109.84;5086746;28;20193;-79
2021/11/11 01:31:45;;;;;;;29.10;18.47;;;;;;;0.91;95.32;96107.47;5067517;28;20708;-78
2021/11/11 01:34:10;;;;;;;27.50;17.30;;;;;;;0.90;95.39;96108.38;5089044;28;20235;-78
2021/11/11 01:36:36;;;;;;;30.17;18.27;;;;;;;0.87;95.31;96103.38;5054276;28;20220;-78
2021/11/11 01:39:04;;;;;;;26.17;16.93;;;;;;;0.88;95.21;96105.88;5071803;28;20185;-79
2021/11/11 01:41:29;;;;;;;29.40;17.90;;;;;;;0.88;95.11;96097.38;5080424;28;20205;-77
2021/11/11 01:43:54;;;;;;;27.07;17.30;;;;;;;0.86;95.30;96092.34;5053591;28;20231;-78
2021/11/11 01:46:20;;;;;;;27.63;17.13;;;;;;;0.84;95.33;96094.16;5089240;28;20563;-79
2021/11/11 01:48:45;;;;;;;27.13;16.50;;;;;;;0.82;95.06;96086.56;5077574;28;20185;-78
2021/11/11 01:51:10;;;;;;;24.87;15.53;;;;;;;0.83;94.98;96082.25;5078599;28;20671;-78
2021/11/11 01:53:36;;;;;;;29.97;17.20;;;;;;;0.81;95.02;96089.19;5081491;28;20188;-78
2021/11/11 01:56:02;;;;;;;27.13;17.87;;;;;;;0.79;95.03;96091.78;5090692;28;20203;-78
2021/11/11 01:58:27;;;;;;;30.20;18.20;;;;;;;0.78;94.85;96077.38;5067216;28;20187;-79
2021/11/11 02:00:55;;;;;;;27.20;17.63;;;;;;;0.78;95.24;96072.25;5074692;28;20265;-78
2021/11/11 02:03:21;;;;;;;28.87;17.67;;;;;;;0.79;95.25;96073.06;5081703;28;20176;-78
2021/11/11 02:05:48;;;;;;;29.57;17.77;;;;;;;0.77;94.84;96074.88;5073405;28;20180;-78
2021/11/11 02:08:14;;;;;;;27.07;17.20;;;;;;;0.77;95.05;96068.03;5090388;28;20250;-78
2021/11/11 02:10:40;;;;;;;26.23;15.83;;;;;;;0.77;94.78;96057.81;5072351;28;20200;-79
2021/11/11 02:13:06;;;;;;;25.70;16.17;;;;;;;0.75;94.83;96058.81;5080788;28;20185;-78
2021/11/11 02:15:33;;;;;;;25.27;16.50;;;;;;;0.73;95.02;96060.63;5073055;28;20679;-78
2021/11/11 02:17:59;;;;;;;27.37;17.30;;;;;;;0.73;95.15;96069.09;5084647;28;20230;-78
2021/11/11 02:20:27;;;;;;;25.80;16.53;;;;;;;0.78;95.27;96067.13;5070103;28;20627;-77
2021/11/11 02:22:54;;;;;;;23.30;16.80;;;;;;;0.79;95.26;96065.41;5071159;28;20192;-78
2021/11/11 02:25:21;;;;;;;24.60;17.00;;;;;;;0.79;94.80;96061.13;5077861;28;20197;-78
2021/11/11 02:27:48;;;;;;;25.77;16.93;;;;;;;0.75;95.22;96051.97;5077228;28;20231;-78
2021/11/11 02:30:15;;;;;;;29.00;17.77;;;;;;;0.76;95.21;96045.13;5054155;28;20204;-79
2021/11/11 02:32:41;;;;;;;25.03;16.33;;;;;;;0.74;95.31;96040.09;5062850;28;20289;-77
2021/11/11 02:35:09;;;;;;;27.20;16.50;;;;;;;0.76;95.44;96043.38;5081979;28;20778;-78
2021/11/11 02:37:35;;;;;;;27.37;17.13;;;;;;;0.80;95.30;96042.34;5088720;28;20275;-78
2021/11/11 02:40:05;;;;;;;31.93;18.50;;;;;;;0.79;95.18;96034.72;5089090;28;20566;-79
2021/11/11 02:42:31;;;;;;;23.93;16.83;;;;;;;0.81;95.14;96036.31;5070312;28;20181;-77
2021/11/11 02:45:00;;;;;;;26.53;17.40;;;;;;;0.80;95.33;96041.53;5064878;28;20218;-78
2021/11/11 02:47:26;;;;;;;28.23;17.97;;;;;;;0.80;95.04;96039.78;5070275;28;20272;-78
2021/11/11 02:49:51;;;;;;;27.77;16.90;;;;;;;0.80;94.99;96044.91;5053106;28;20304;-78
2021/11/11 02:52:17;;;;;;;26.53;17.57;;;;;;;0.81;95.16;96044.00;5070796;28;20193;-77
2021/11/11 02:54:43;;;;;;;29.67;19.07;;;;;;;0.79;95.42;96038.09;5074904;28;20188;-77
2021/11/11 02:57:22;;;;;;;27.47;18.50;;;;;;;0.82;95.86;96032.88;5081338;28;20667;-79
2021/11/11 02:59:49;;;;;;;28.50;18.97;;;;;;;0.83;95.41;96034.50;5070065;28;20200;-78
2021/11/11 03:02:29;;;;;;;34.00;19.53;;;;;;;0.85;95.90;96037.00;5070514;28;20181;-77
2021/11/11 03:04:56;;;;;;;34.03;19.37;;;;;;;0.90;95.60;96039.31;5073879;28;20305;-78
2021/11/11 03:07:22;;;;;;;36.07;20.93;;;;;;;0.92;95.62;96045.19;5081851;28;20743;-79
2021/11/11 03:09:47;;;;;;;35.20;21.30;;;;;;;1.01;96.01;96040.44;5089374;28;20231;-78
2021/11/11 03:12:13;;;;;;;30.40;20.07;;;;;;;1.17;96.05;96049.91;5091330;28;20275;-78
2021/11/11 03:14:39;;;;;;;35.23;21.33;;;;;;;1.24;96.06;96041.84;5073430;28;20185;-78
2021/11/11 03:17:05;;;;;;;37.73;20.83;;;;;;;1.34;95.98;96042.19;5079740;28;20185;-77
2021/11/11 03:19:34;;;;;;;29.53;19.43;;;;;;;1.39;96.01;96038.44;5059444;28;20200;-78
2021/11/11 03:22:01;;;;;;;26.43;17.93;;;;;;;1.45;95.52;96044.16;5053173;28;20213;-77
2021/11/11 03:24:26;;;;;;;33.87;19.43;;;;;;;1.37;95.65;96040.28;5052325;28;20648;-79
2021/11/11 03:26:52;;;;;;;27.57;17.30;;;;;;;1.28;95.13;96034.81;5060516;28;20188;-78
2021/11/11 03:29:17;;;;;;;30.77;17.43;;;;;;;1.23;95.36;96039.31;5067501;28;20189;-78
2021/11/11 03:31:43;;;;;;;29.17;16.83;;;;;;;1.18;95.33;96034.47;5071790;28;20204;-79
2021/11/11 03:34:08;;;;;;;30.53;17.83;;;;;;;1.13;95.63;96033.84;5074055;28;20243;-79
2021/11/11 03:36:33;;;;;;;25.50;16.57;;;;;;;1.10;95.51;96034.03;5079758;28;20207;-77
2021/11/11 03:38:58;;;;;;;28.23;17.83;;;;;;;1.04;95.50;96032.59;5072249;28;20186;-78
2021/11/11 03:41:25;;;;;;;27.43;17.97;;;;;;;1.04;95.48;96032.59;5093444;28;20204;-77
2021/11/11 03:43:50;;;;;;;31.27;18.87;;;;;;;1.04;95.77;96031.78;5089902;28;20275;-77
2021/11/11 03:46:16;;;;;;;30.00;16.80;;;;;;;1.00;95.96;96031.09;5073332;28;20265;-77
2021/11/11 03:48:41;;;;;;;27.60;16.67;;;;;;;1.00;95.41;96033.66;5082280;28;20272;-78
2021/11/11 03:51:06;;;;;;;27.00;17.63;;;;;;;0.98;95.69;96039.78;5089723;28;20222;-78
2021/11/11 03:53:32;;;;;;;29.40;18.20;;;;;;;0.94;95.96;96048.50;5090249;28;20192;-79
2021/11/11 03:55:58;;;;;;;30.43;18.77;;;;;;;0.93;95.54;96051.94;5073067;28;20181;-79
2021/11/11 03:58:24;;;;;;;28.53;18.77;;;;;;;0.90;96.17;96047.81;5075005;28;20189;-78
2021/11/11 04:00:49;;;;;;;29.73;17.33;;;;;;;0.89;95.96;96047.91;5070435;28;20208;-78
2021/11/11 04:03:14;;;;;;;25.20;16.57;;;;;;;0.82;95.55;96055.88;5074122;28;20209;-78
2021/11/11 04:05:40;;;;;;;25.00;16.70;;;;;;;0.80;95.68;96060.25;5078487;28;20267;-78
2021/11/11 04:08:05;;;;;;;24.33;16.50;;;;;;;0.75;95.56;96074.97;5092374;28;20604;-78
2021/11/11 04:10:31;;;;;;;24.03;15.63;;;;;;;0.70;95.30;96071.78;5082520;28;20212;-78
2021/11/11 04:12:59;;;;;;;25.63;15.90;;;;;;;0.68;95.61;96068.50;5076349;28;20177;-78
2021/11/11 04:15:25;;;;;;;24.70;16.17;;;;;;;0.66;95.48;96072.88;5076083;28;20196;-77
2021/11/11 04:17:51;;;;;;;27.47;16.50;;;;;;;0.65;95.57;96061.00;5073127;28;20177;-78
2021/11/11 04:20:17;;;;;;;26.77;16.07;;;;;;;0.64;95.53;96061.06;5059412;28;20209;-78
2021/11/11 04:22:42;;;;;;;23.13;15.90;;;;;;;0.60;95.70;96064.66;5072407;28;20233;-78
2021/11/11 04:25:09;;;;;;;28.50;17.00;;;;;;;0.57;95.56;96069.03;5056128;28;20284;-79
2021/11/11 04:27:43;;;;;;;26.40;18.00;;;;;;;0.61;95.83;96072.25;5055898;28;20204;-78
2021/11/11 04:32:34;;;;;;;30.47;17.93;;;;;;;0.60;95.48;96073.16;5080263;28;20192;-79
2021/11/11 04:35:00;;;;;;;26.63;16.93;;;;;;;0.51;95.51;96076.16;5056031;28;20185;-78
2021/11/11 04:37:32;;;;;;;29.73;17.90;;;;;;;0.48;95.53;96078.88;5072386;28;20652;-79
2021/11/11 04:43:03;;;;;;;31.30;17.60;;;;;;;0.41;95.31;96068.09;5080612;28;20196;-79
2021/11/11 04:48:36;;;;;;;32.57;20.50;;;;;;;0.44;95.88;96057.75;5091881;28;20234;-79
2021/11/11 04:51:14;;;;;;;28.00;17.87;;;;;;;0.47;96.35;96057.59;5087280;28;20216;-79
2021/11/11 05:04:17;;;;;;;35.63;20.17;;;;;;;0.77;96.49;96057.00;5085685;28;20207;-78
2021/11/11 05:06:42;;;;;;;30.97;19.53;;;;;;;0.83;96.46;96054.97;5091724;28;20185;-79
2021/11/11 05:09:07;;;;;;;33.57;21.40;;;;;;;0.92;96.86;96063.91;5091549;28;20249;-78
2021/11/11 05:11:32;;;;;;;39.50;22.20;;;;;;;0.97;97.54;96076.44;5089716;28;20201;-79
2021/11/11 05:13:58;;;;;;;32.30;20.90;;;;;;;0.98;97.30;96076.41;5081237;28;20215;-78
2021/11/11 05:16:23;;;;;;;37.97;22.20;;;;;;;0.91;97.43;96071.66;5087058;28;20181;-78
2021/11/11 05:18:49;;;;;;;29.13;19.90;;;;;;;0.85;97.14;96085.56;5079972;28;20267;-79
2021/11/11 05:21:14;;;;;;;33.43;20.03;;;;;;;0.78;96.99;96079.91;5089851;28;20212;-78
2021/11/11 05:23:40;;;;;;;31.27;20.77;;;;;;;0.77;97.17;96077.44;5077906;28;20192;-78
2021/11/11 05:26:06;;;;;;;31.97;19.23;;;;;;;0.67;96.96;96071.97;5079461;28;20589;-78
2021/11/11 05:28:31;;;;;;;32.63;19.80;;;;;;;0.65;97.06;96062.72;5072255;28;20175;-79
2021/11/11 05:30:57;;;;;;;29.77;20.00;;;;;;;0.60;97.02;96065.47;5072308;28;20197;-78
2021/11/11 05:33:22;;;;;;;34.50;19.63;;;;;;;0.54;96.88;96051.28;5089984;28;20188;-79
2021/11/11 05:35:48;;;;;;;28.90;18.53;;;;;;;0.64;97.40;96040.63;5082416;28;20264;-79
2021/11/11 05:38:13;;;;;;;32.23;20.20;;;;;;;0.65;97.28;96052.50;5082363;28;20223;-79
2021/11/11 05:40:38;;;;;;;30.17;20.13;;;;;;;0.65;97.48;96048.22;5069969;28;20216;-78
2021/11/11 05:43:04;;;;;;;38.33;22.13;;;;;;;0.70;97.85;96051.34;5079714;28;20244;-80
2021/11/11 05:45:29;;;;;;;38.17;21.07;;;;;;;0.76;98.16;96045.94;5077747;28;20177;-80
2021/11/11 05:47:55;;;;;;;38.17;23.13;;;;;;;0.82;98.22;96055.03;5070873;28;20978;-79
2021/11/11 05:50:21;;;;;;;39.03;22.17;;;;;;;0.93;98.66;96057.06;5091275;28;20477;-78
2021/11/11 05:52:46;;;;;;;40.40;23.30;;;;;;;0.97;98.21;96046.63;5068881;28;20181;-79
2021/11/11 05:55:12;;;;;;;38.10;23.67;;;;;;;1.08;99.01;96053.75;5062644;28;20184;-79
2021/11/11 05:57:38;;;;;;;46.57;26.73;;;;;;;1.16;99.20;96058.47;5065512;28;20205;-78
2021/11/11 06:00:09;;;;;;;39.77;24.73;;;;;;;1.03;98.66;96058.25;5054591;28;20197;-77
2021/11/11 06:02:34;;;;;;;34.40;23.07;;;;;;;0.97;97.73;96050.88;5072270;28;20215;-77
2021/11/11 06:05:00;;;;;;;38.73;23.53;;;;;;;0.95;98.12;96052.69;5069393;28;20177;-77
2021/11/11 06:07:25;;;;;;;37.73;23.80;;;;;;;0.98;98.28;96061.06;5078939;28;20185;-77
2021/11/11 06:09:50;;;;;;;42.23;24.83;;;;;;;1.07;99.23;96065.72;5085210;28;20200;-76
2021/11/11 06:12:16;;;;;;;44.37;25.70;;;;;;;1.11;99.28;96066.38;5087637;28;20218;-77
2021/11/11 06:14:41;;;;;;;35.50;23.17;;;;;;;1.10;98.94;96064.72;5059439;28;20187;-78
2021/11/11 06:17:07;;;;;;;41.50;24.77;;;;;;;1.09;98.88;96060.50;5078073;28;20571;-78
2021/11/11 06:19:36;;;;;;;33.10;21.63;;;;;;;1.04;98.77;96065.00;5074080;28;20184;-78
2021/11/11 06:22:03;;;;;;;33.97;21.50;;;;;;;0.92;98.12;96075.88;5071097;28;20211;-78
2021/11/11 06:24:28;;;;;;;36.37;27.33;;;;;;;0.84;97.97;96082.19;5058102;28;20660;-77
2021/11/11 06:26:54;;;;;;;35.00;23.87;;;;;;;0.77;97.62;96088.50;5077881;28;20184;-78
2021/11/11 06:29:19;;;;;;;32.53;22.40;;;;;;;0.67;97.61;96081.34;5082480;28;20188;-78
2021/11/11 06:31:44;;;;;;;34.93;19.37;;;;;;;0.63;97.41;96085.81;5054526;28;20231;-79
2021/11/11 06:34:10;;;;;;;32.53;18.63;;;;;;;0.53;97.21;96090.53;5071055;28;20181;-79
2021/11/11 06:36:36;;;;;;;29.63;19.40;;;;;;;0.52;97.56;96099.06;5054746;28;20298;-79
2021/11/11 06:39:03;;;;;;;28.93;19.20;;;;;;;0.51;97.25;96101.72;5080205;28;20266;-81
2021/11/11 06:41:28;;;;;;;28.93;19.07;;;;;;;0.49;97.40;96098.41;5075761;28;20189;-79
2021/11/11 06:43:54;;;;;;;29.80;17.70;;;;;;;0.51;97.62;96096.59;5071014;28;20242;-79
2021/11/11 06:46:20;;;;;;;27.77;18.83;;;;;;;0.51;97.57;96097.41;5074266;28;20208;-82
2021/11/11 06:48:45;;;;;;;32.03;18.50;;;;;;;0.55;97.22;96093.84;5065036;28;20294;-83
2021/11/11 06:51:11;;;;;;;30.20;19.50;;;;;;;0.56;97.17;96098.03;5074684;28;20237;-83
2021/11/11 06:53:36;;;;;;;30.33;19.57;;;;;;;0.55;97.34;96104.06;5083596;28;20208;-79
2021/11/11 06:56:03;;;;;;;29.90;20.10;;;;;;;0.63;97.42;96106.25;5086872;28;20180;-80
2021/11/11 06:58:28;;;;;;;28.87;19.70;;;;;;;0.71;97.48;96106.72;5060936;28;20184;-81
2021/11/11 07:00:56;;;;;;;29.97;17.77;;;;;;;0.75;97.15;96104.81;5075407;28;20609;-79
2021/11/11 07:03:22;;;;;;;23.60;15.90;;;;;;;0.79;97.25;96107.13;5081155;28;20903;-80
2021/11/11 07:05:47;;;;;;;29.23;17.83;;;;;;;0.81;96.94;96110.47;5069303;28;20212;-79
2021/11/11 07:08:13;;;;;;;23.53;17.40;;;;;;;0.88;97.27;96108.41;5084130;28;20188;-79
2021/11/11 07:10:41;;;;;;;26.33;17.23;;;;;;;0.92;97.06;96112.50;5060680;28;20194;-79
2021/11/11 07:13:06;;;;;;;25.40;19.13;;;;;;;0.95;96.99;96111.50;5081451;28;20177;-79
2021/11/11 07:15:33;;;;;;;23.43;17.63;;;;;;;0.97;96.90;96120.78;5070130;28;20548;-79
2021/11/11 07:17:58;;;;;;;24.70;16.40;;;;;;;1.05;96.96;96112.72;5060261;28;20181;-79
2021/11/11 07:20:24;;;;;;;26.00;18.17;;;;;;;1.07;96.84;96114.31;5069676;28;20219;-79
2021/11/11 07:22:53;;;;;;;24.07;17.83;;;;;;;1.14;96.74;96118.19;5064360;28;20181;-78
2021/11/11 07:25:18;;;;;;;25.90;15.83;;;;;;;1.20;96.29;96121.34;5081050;28;20188;-79
2021/11/11 07:27:44;;;;;;;25.47;16.87;;;;;;;1.29;96.82;96126.84;5081814;28;20206;-79
2021/11/11 07:30:15;;;;;;;24.33;17.90;;;;;;;1.36;96.44;96128.19;5073324;28;20707;-80
2021/11/11 07:32:40;;;;;;;30.60;20.00;;;;;;;1.45;95.95;96133.75;5067865;28;20299;-80
2021/11/11 07:35:09;;;;;;;18.93;14.37;;;;;;;1.44;95.96;96134.66;5087459;28;20197;-79
2021/11/11 07:37:39;;;;;;;16.73;11.57;;;;;;;1.47;95.13;96137.06;5074872;28;20188;-79
2021/11/11 07:40:05;;;;;;;18.37;11.00;;;;;;;1.39;95.02;96138.25;5083011;28;20303;-80
2021/11/11 07:42:30;;;;;;;15.80;11.40;;;;;;;1.40;95.00;96139.91;5078450;28;20268;-81
2021/11/11 07:44:55;;;;;;;13.90;10.33;;;;;;;1.41;94.62;96138.19;5067743;28;20649;-80
2021/11/11 07:47:31;;;;;;;17.43;11.20;;;;;;;1.45;94.49;96139.69;5082532;28;20219;-80
2021/11/11 07:49:57;;;;;;;17.73;11.57;;;;;;;1.50;94.76;96140.28;5060356;28;20204;-78
2021/11/11 07:52:24;;;;;;;16.97;11.37;;;;;;;1.55;93.60;96137.50;5088489;28;20525;-78
2021/11/11 07:54:50;;;;;;;17.50;11.10;;;;;;;1.54;94.10;96144.34;5067784;28;20247;-79
2021/11/11 07:57:15;;;;;;;16.10;10.97;;;;;;;1.57;93.81;96148.47;5081609;28;20216;-80
2021/11/11 07:59:41;;;;;;;13.73;10.47;;;;;;;1.61;93.76;96150.81;5094936;28;20219;-80
2021/11/11 08:02:07;;;;;;;13.70;10.97;;;;;;;1.64;93.87;96160.88;5079793;28;20295;-80
2021/11/11 08:04:33;;;;;;;15.67;10.27;;;;;;;1.66;93.07;96155.69;5086377;28;20212;-79
2021/11/11 08:06:58;;;;;;;16.43;11.73;;;;;;;1.70;93.42;96154.63;5088285;28;20619;-79
2021/11/11 08:09:23;;;;;;;17.17;11.00;;;;;;;1.68;93.53;96153.88;5090144;28;20192;-78
2021/11/11 08:11:50;;;;;;;19.83;11.97;;;;;;;1.79;93.63;96161.00;5088987;28;20180;-78
2021/11/11 08:14:15;;;;;;;15.47;11.80;;;;;;;1.87;93.28;96164.00;5076192;28;20857;-78
2021/11/11 08:16:40;;;;;;;19.20;13.10;;;;;;;1.89;93.53;96163.00;5075342;28;20198;-79
2021/11/11 08:19:06;;;;;;;21.47;11.77;;;;;;;1.94;93.68;96161.06;5075799;28;20200;-80
2021/11/11 08:21:31;;;;;;;20.57;13.60;;;;;;;1.99;93.39;96168.47;5081465;28;20254;-79
2021/11/11 08:23:56;;;;;;;18.63;13.10;;;;;;;2.07;93.55;96173.22;5071420;28;20764;-77
2021/11/11 08:26:22;;;;;;;19.33;13.53;;;;;;;2.18;92.97;96176.84;5078000;28;20636;-79
2021/11/11 08:28:47;;;;;;;18.33;14.13;;;;;;;2.22;92.89;96177.53;5074343;28;20256;-81
2021/11/11 08:31:12;;;;;;;19.40;13.53;;;;;;;2.30;93.18;96172.81;5066250;28;20219;-79
2021/11/11 08:33:38;;;;;;;18.23;13.07;;;;;;;2.39;93.11;96172.34;5081237;28;20625;-79
2021/11/11 08:36:04;;;;;;;18.03;13.97;;;;;;;2.46;92.98;96172.81;5081062;28;20192;-79
2021/11/11 08:38:30;;;;;;;22.67;15.43;;;;;;;2.60;92.84;96172.06;5091497;28;20512;-79
2021/11/11 08:40:56;;;;;;;23.27;15.40;;;;;;;2.65;92.46;96177.75;5078023;28;20205;-79
2021/11/11 08:43:22;;;;;;;23.30;16.37;;;;;;;2.70;92.53;96181.72;5082982;28;20191;-79
2021/11/11 08:45:49;;;;;;;25.57;15.53;;;;;;;2.80;91.96;96182.06;5079853;28;20193;-79
2021/11/11 08:48:15;;;;;;;26.77;17.17;;;;;;;2.92;91.71;96176.25;5070121;28;20226;-79
2021/11/11 08:50:40;;;;;;;28.07;17.60;;;;;;;3.05;91.50;96177.22;5082440;28;20611;-79
2021/11/11 08:53:07;;;;;;;25.47;17.20;;;;;;;3.12;91.23;96178.50;5088985;28;20188;-80
2021/11/11 08:55:34;;;;;;;27.13;17.87;;;;;;;3.23;91.45;96174.50;5086459;28;20231;-78
2021/11/11 08:58:02;;;;;;;27.73;18.20;;;;;;;3.31;90.41;96183.44;5085341;28;20271;-77
2021/11/11 09:00:30;;;;;;;36.00;18.97;;;;;;;3.38;90.46;96183.91;5072047;28;20202;-78
2021/11/11 09:02:57;;;;;;;28.53;18.93;;;;;;;3.46;89.57;96180.91;5073176;28;20634;-79
2021/11/11 09:05:24;;;;;;;26.70;18.33;;;;;;;3.52;89.18;96180.53;5071386;28;20551;-77
2021/11/11 09:07:51;;;;;;;29.10;19.10;;;;;;;3.59;89.20;96180.09;5065258;28;20849;-78
2021/11/11 09:10:21;;;;;;;32.17;19.10;;;;;;;3.64;88.52;96184.97;5071144;28;20199;-78
2021/11/11 09:12:48;;;;;;;28.73;19.77;;;;;;;3.71;89.75;96191.41;5069466;28;20597;-79
2021/11/11 09:15:15;;;;;;;31.80;20.93;;;;;;;3.81;89.14;96186.53;5057448;28;20287;-77
2021/11/11 09:17:41;;;;;;;41.27;24.77;;;;;;;3.81;88.50;96186.53;5070740;28;20212;-79
2021/11/11 09:20:08;;;;;;;35.70;24.03;;;;;;;3.94;87.82;96184.88;5077612;28;20464;-79
2021/11/11 09:22:34;;;;;;;35.37;23.97;;;;;;;3.98;87.60;96191.50;5081426;28;20202;-78
2021/11/11 09:25:04;;;;;;;41.40;25.03;;;;;;;3.96;87.42;96189.00;5062515;28;20189;-79
2021/11/11 09:27:29;;;;;;;40.43;22.93;;;;;;;3.92;86.88;96190.13;5077930;28;20508;-78
2021/11/11 09:29:55;;;;;;;31.33;21.27;;;;;;;3.89;86.99;96192.06;5073670;28;20210;-81
2021/11/11 09:32:21;;;;;;;30.60;21.13;;;;;;;3.89;86.75;96192.06;5079558;28;20179;-80
2021/11/11 09:34:46;;;;;;;31.17;21.23;;;;;;;3.88;87.03;96192.94;5078012;28;20237;-79
2021/11/11 09:37:11;;;;;;;35.53;21.20;;;;;;;3.87;87.34;96199.84;5083193;28;20201;-79
2021/11/11 09:39:37;;;;;;;34.37;22.90;;;;;;;3.81;86.56;96196.81;5082515;28;20652;-80
2021/11/11 09:42:02;;;;;;;34.43;23.93;;;;;;;3.77;87.38;96192.75;5078908;28;20209;-81
2021/11/11 09:44:28;;;;;;;33.27;23.33;;;;;;;3.63;87.81;96201.28;5086860;28;20183;-79
2021/11/11 09:46:54;;;;;;;34.30;24.27;;;;;;;3.58;88.23;96206.69;5067458;28;20614;-80
2021/11/11 09:49:23;;;;;;;32.70;24.00;;;;;;;3.51;88.46;96207.94;5082580;28;20208;-80
2021/11/11 09:51:49;;;;;;;40.10;24.83;;;;;;;3.59;88.66;96210.06;5079195;28;20181;-78
2021/11/11 09:59:26;;;;;;;39.70;27.30;;;;;;;3.51;89.20;96209.69;5075047;28;20200;-80
2021/11/11 10:01:53;;;;;;;43.73;29.07;;;;;;;3.64;89.33;96203.78;5062577;28;20205;-80
2021/11/11 10:04:18;;;;;;;40.87;29.30;;;;;;;3.60;89.30;96199.72;5086863;28;20184;-78
2021/11/11 10:06:44;;;;;;;39.43;28.43;;;;;;;3.77;88.87;96206.44;5078095;28;20619;-80
2021/11/11 10:09:20;;;;;;;38.53;27.60;;;;;;;3.83;88.48;96205.25;5061051;28;20199;-81
2021/11/11 10:11:52;;;;;;;44.00;29.40;;;;;;;3.97;88.59;96205.25;5086199;28;20194;-80
2021/11/11 10:14:28;;;;;;;45.43;30.40;;;;;;;4.01;88.73;96203.34;5074599;28;20172;-78
2021/11/11 10:17:00;;;;;;;41.40;28.63;;;;;;;4.08;88.46;96210.59;5083348;28;20176;-78
2021/11/11 10:19:28;;;;;;;44.93;29.83;;;;;;;4.18;88.49;96206.56;5061002;28;20496;-80
2021/11/11 10:21:58;;;;;;;44.60;29.07;;;;;;;4.31;88.20;96218.66;5080467;28;20200;-79
2021/11/11 10:24:49;;;;;;;44.57;30.33;;;;;;;4.46;87.65;96213.41;5076006;28;20278;-79
2021/11/11 10:27:46;;;;;;;49.30;31.07;;;;;;;4.39;86.69;96213.88;5082415;28;20196;-79
2021/11/11 10:30:26;;;;;;;44.43;30.33;;;;;;;4.51;87.16;96213.13;5085246;28;20223;-78
2021/11/11 10:32:53;;;;;;;46.07;30.90;;;;;;;4.70;86.71;96215.41;5079055;28;20669;-78
2021/11/11 10:35:27;;;;;;;47.60;31.83;;;;;;;4.74;86.38;96207.38;5082258;28;20181;-79
2021/11/11 10:38:13;;;;;;;46.77;32.47;;;;;;;4.74;86.02;96203.97;5060280;28;20192;-79
2021/11/11 10:40:42;;;;;;;45.70;29.83;;;;;;;4.84;86.04;96207.63;5067397;28;20211;-80
2021/11/11 10:43:10;;;;;;;43.73;30.23;;;;;;;4.70;85.72;96198.22;5084196;28;20219;-79
2021/11/11 10:45:40;;;;;;;42.33;30.67;;;;;;;4.83;86.12;96206.81;5059991;28;20287;-81
2021/11/11 10:48:10;;;;;;;40.57;29.53;;;;;;;4.94;86.08;96195.81;5065769;28;20195;-80
2021/11/11 10:50:38;;;;;;;38.83;27.07;;;;;;;4.90;84.34;96201.28;5065846;28;20215;-81
2021/11/11 10:53:06;;;;;;;38.20;28.67;;;;;;;5.05;84.93;96208.84;5087137;28;20194;-80
2021/11/11 10:55:33;;;;;;;39.20;27.73;;;;;;;5.08;84.34;96208.66;5075219;28;20184;-81
2021/11/11 10:58:20;;;;;;;38.80;27.30;;;;;;;5.14;83.80;96214.34;5068465;28;20225;-81
2021/11/11 11:01:03;;;;;;;37.17;25.73;;;;;;;5.05;84.04;96210.59;5078468;28;20231;-80
2021/11/11 11:03:31;;;;;;;33.90;25.07;;;;;;;5.13;83.54;96213.53;5072932;28;20655;-80
2021/11/11 11:05:59;;;;;;;36.13;25.40;;;;;;;5.23;83.34;96218.91;5078862;28;20192;-79
2021/11/11 11:08:33;;;;;;;36.73;25.43;;;;;;;5.23;83.16;96221.47;5078897;28;20185;-80
2021/11/11 11:11:04;;;;;;;38.20;26.17;;;;;;;5.23;83.20;96221.47;5077449;28;20556;-79
2021/11/11 11:13:35;;;;;;;33.17;24.83;;;;;;;5.42;82.47;96223.69;5058920;28;20277;-79
2021/11/11 11:16:06;;;;;;;36.83;26.40;;;;;;;5.44;82.18;96219.25;5066567;28;20185;-79
2021/11/11 11:18:34;;;;;;;34.87;25.83;;;;;;;5.47;82.15;96211.31;5064358;28;20250;-79
2021/11/11 11:21:04;;;;;;;33.63;24.17;;;;;;;5.37;82.05;96203.38;5072773;28;20325;-80
2021/11/11 11:23:42;;;;;;;36.93;26.87;;;;;;;5.43;82.33;96215.03;5084334;28;20212;-80
2021/11/11 11:26:13;;;;;;;35.73;25.07;;;;;;;5.50;81.62;96211.13;5074973;28;20196;-79
2021/11/11 11:28:48;;;;;;;33.27;24.40;;;;;;;5.44;81.35;96207.19;5065155;28;20188;-80
2021/11/11 11:31:22;;;;;;;36.67;25.97;;;;;;;5.39;81.76;96199.78;5063718;28;20691;-79
2021/11/11 11:33:48;;;;;;;35.80;25.80;;;;;;;5.43;81.34;96197.00;5072042;28;20569;-79
2021/11/11 11:36:18;;;;;;;35.67;25.97;;;;;;;5.61;80.65;96180.34;5079652;28;20647;-79
2021/11/11 11:38:54;;;;;;;34.27;24.80;;;;;;;5.48;80.21;96190.63;5065518;28;20179;-78
2021/11/11 11:41:31;;;;;;;34.97;25.50;;;;;;;5.54;80.69;96186.81;5080106;28;20224;-78
2021/11/11 11:44:32;;;;;;;36.90;26.43;;;;;;;5.54;80.13;96192.78;5080696;28;20180;-79
2021/11/11 11:47:04;;;;;;;35.03;25.77;;;;;;;5.61;80.10;96176.00;5082112;28;20234;-79
2021/11/11 11:49:30;;;;;;;38.33;26.57;;;;;;;5.72;80.43;96180.44;5087710;28;20189;-79